Time;durP1;ratioP1;P1;durP2;ratioP2;P2;SDS_P1;SDS_P2;PMS_P1;PMS_P2;Temp;Humidity;BMP_temperature;BMP_pressure;BME280_temperature;BME280_humidity;BME280_pressure;Samples;Min_cycle;Max_cycle;Signal;HPM_P1;HPM_P2
2021/04/06 00:02:12;;;;;;;1.30;1.10;;;;;;;-1.43;79.89;96444.34;5111563;27;20250;-69
2021/04/06 00:04:41;;;;;;;4.40;1.30;;;;;;;-1.45;79.26;96451.41;5112008;28;20183;-68
2021/04/06 00:07:10;;;;;;;1.83;1.30;;;;;;;-1.36;79.53;96449.66;5112448;28;20186;-67
2021/04/06 00:09:36;;;;;;;2.53;1.30;;;;;;;-1.41;79.29;96449.31;5112938;28;20626;-68
2021/04/06 00:12:04;;;;;;;2.30;1.50;;;;;;;-1.57;80.79;96447.56;5111144;28;20211;-67
2021/04/06 00:14:31;;;;;;;1.30;1.17;;;;;;;-1.48;80.91;96440.66;5111160;28;20176;-68
2021/04/06 00:17:03;;;;;;;2.60;1.50;;;;;;;-1.39;80.56;96447.38;5109950;28;20179;-68
2021/04/06 00:19:33;;;;;;;2.90;1.60;;;;;;;-1.51;80.82;96441.78;5112597;28;20183;-68
2021/04/06 00:22:01;;;;;;;4.97;1.40;;;;;;;-1.57;80.65;96439.84;5111377;28;20207;-68
2021/04/06 00:24:31;;;;;;;1.93;1.23;;;;;;;-1.60;82.01;96434.22;5111947;28;20236;-68
2021/04/06 00:27:15;;;;;;;3.00;1.37;;;;;;;-1.62;82.07;96434.38;5111694;28;20178;-68
2021/04/06 00:29:43;;;;;;;2.83;1.30;;;;;;;-1.61;82.10;96446.25;5112206;28;20179;-69
2021/04/06 00:32:09;;;;;;;1.40;1.20;;;;;;;-1.59;82.81;96444.34;5109660;28;20204;-68
2021/04/06 00:34:37;;;;;;;1.97;1.50;;;;;;;-1.73;82.94;96444.97;5112089;28;20263;-69
2021/04/06 00:37:09;;;;;;;1.40;1.30;;;;;;;-1.73;83.73;96439.84;5111013;28;20191;-68
2021/04/06 00:39:36;;;;;;;3.47;1.50;;;;;;;-1.74;84.56;96436.47;5112300;28;20181;-68
2021/04/06 00:42:18;;;;;;;4.57;1.50;;;;;;;-1.70;84.40;96430.03;5109208;28;20184;-68
2021/04/06 00:44:51;;;;;;;2.47;1.40;;;;;;;-1.77;84.73;96431.63;5111810;28;20191;-68
2021/04/06 00:47:25;;;;;;;2.30;1.30;;;;;;;-1.74;83.94;96435.66;5110434;28;20503;-69
2021/04/06 00:49:53;;;;;;;3.83;1.53;;;;;;;-1.57;83.54;96437.28;5110169;28;20171;-68
2021/04/06 00:52:20;;;;;;;2.07;1.70;;;;;;;-1.66;84.09;96438.22;5111204;28;20211;-68
2021/04/06 00:54:51;;;;;;;2.90;1.57;;;;;;;-1.61;83.39;96438.53;5109958;28;20230;-72
2021/04/06 00:57:17;;;;;;;3.67;1.97;;;;;;;-1.61;83.90;96438.53;5111936;28;20595;-69
2021/04/06 01:00:12;;;;;;;1.90;1.70;;;;;;;-1.65;84.41;96429.56;5111665;28;20282;-69
2021/04/06 01:02:38;;;;;;;4.73;1.77;;;;;;;-1.76;83.60;96435.00;5108781;28;20680;-68
2021/04/06 01:05:07;;;;;;;1.93;1.70;;;;;;;-1.64;82.83;96438.06;5111410;28;20316;-68
2021/04/06 01:07:34;;;;;;;5.93;2.03;;;;;;;-1.55;83.22;96439.66;5110239;28;20176;-68
2021/04/06 01:10:02;;;;;;;5.20;2.00;;;;;;;-1.61;82.46;96438.53;5110309;28;20270;-68
2021/04/06 01:12:29;;;;;;;3.07;1.70;;;;;;;-1.60;82.49;96445.28;5111568;28;20262;-67
2021/04/06 01:14:56;;;;;;;3.60;2.23;;;;;;;-1.63;82.04;96442.25;5110539;28;20184;-68
2021/04/06 01:17:27;;;;;;;2.90;1.87;;;;;;;-1.73;83.24;96439.84;5111608;28;20199;-67
2021/04/06 01:19:52;;;;;;;3.60;2.50;;;;;;;-1.76;83.83;96451.22;5109639;28;20180;-68
2021/04/06 01:22:19;;;;;;;6.90;1.77;;;;;;;-1.70;83.73;96442.06;5111520;28;20217;-69
2021/04/06 01:24:46;;;;;;;3.90;1.87;;;;;;;-1.79;84.55;96448.97;5111580;28;20330;-69
2021/04/06 01:27:17;;;;;;;3.03;2.03;;;;;;;-1.89;84.40;96442.34;5109883;28;20188;-68
2021/04/06 01:29:55;;;;;;;3.67;1.90;;;;;;;-1.78;83.96;96432.59;5095154;28;20180;-68
2021/04/06 01:32:22;;;;;;;5.77;2.00;;;;;;;-1.77;83.91;96425.69;5111551;28;20257;-69
2021/04/06 01:34:49;;;;;;;2.07;1.73;;;;;;;-1.76;83.00;96424.72;5109353;28;20259;-72
2021/04/06 01:37:23;;;;;;;3.67;1.90;;;;;;;-1.81;83.43;96438.06;5111071;28;20541;-68
2021/04/06 01:39:51;;;;;;;2.07;1.50;;;;;;;-1.88;83.99;96428.56;5090953;28;20622;-71
2021/04/06 01:42:18;;;;;;;3.33;1.77;;;;;;;-1.95;83.64;96430.16;5098616;28;20279;-68
2021/04/06 01:44:47;;;;;;;2.60;1.83;;;;;;;-1.87;83.69;96422.47;5111501;28;20207;-67
2021/04/06 01:47:15;;;;;;;2.30;1.70;;;;;;;-1.83;82.69;96427.13;5109982;28;20180;-68
2021/04/06 01:49:42;;;;;;;3.00;2.00;;;;;;;-1.76;82.43;96425.53;5111015;28;20169;-68
2021/04/06 01:52:08;;;;;;;2.90;1.90;;;;;;;-1.84;83.40;96415.25;5109980;28;20291;-68
2021/04/06 01:54:36;;;;;;;2.13;1.70;;;;;;;-1.81;82.46;96421.84;5109607;28;20276;-67
2021/04/06 01:57:10;;;;;;;4.13;2.10;;;;;;;-1.87;82.75;96409.63;5110324;28;20595;-66
2021/04/06 01:59:42;;;;;;;3.40;1.90;;;;;;;-1.93;83.62;96411.06;5111102;28;20180;-65
2021/04/06 02:02:10;;;;;;;3.80;1.90;;;;;;;-1.92;82.95;96412.66;5114423;28;20226;-66
2021/04/06 02:04:37;;;;;;;3.20;1.93;;;;;;;-1.85;82.74;96411.09;5115287;28;20180;-66
2021/04/06 02:07:05;;;;;;;4.63;1.73;;;;;;;-1.88;82.20;96395.97;5114008;28;20194;-65
2021/04/06 02:09:33;;;;;;;3.47;2.20;;;;;;;-1.84;82.86;96404.97;5113948;28;20686;-67
2021/04/06 02:11:58;;;;;;;2.67;2.00;;;;;;;-1.95;83.73;96400.13;5113600;28;20304;-66
2021/04/06 02:14:24;;;;;;;5.33;1.80;;;;;;;-2.04;83.90;96397.72;5115439;28;20200;-67
2021/04/06 02:16:54;;;;;;;4.60;2.10;;;;;;;-2.07;83.56;96395.47;5114413;28;20211;-71
2021/04/06 02:19:32;;;;;;;4.57;2.10;;;;;;;-2.09;84.21;96398.19;5114693;28;20674;-70
2021/04/06 02:21:59;;;;;;;3.43;2.60;;;;;;;-1.97;83.49;96402.06;5113736;28;20188;-67
2021/04/06 02:24:51;;;;;;;3.63;2.30;;;;;;;-2.00;82.25;96394.69;5114709;28;20188;-67
2021/04/06 02:27:18;;;;;;;4.43;1.80;;;;;;;-2.06;81.70;96403.00;5113741;28;20517;-67
2021/04/06 02:29:49;;;;;;;2.20;1.90;;;;;;;-2.05;81.66;96406.38;5114415;28;20263;-67
2021/04/06 02:32:16;;;;;;;4.60;2.30;;;;;;;-2.06;82.68;96404.78;5113291;28;20220;-70
2021/04/06 02:34:46;;;;;;;1.90;1.70;;;;;;;-2.11;82.87;96398.34;5114520;28;20183;-68
2021/04/06 02:37:19;;;;;;;6.47;2.13;;;;;;;-2.08;82.10;96393.88;5113084;28;20657;-68
2021/04/06 02:39:46;;;;;;;4.07;2.10;;;;;;;-2.19;83.81;96402.69;5113005;28;20172;-68
2021/04/06 02:42:25;;;;;;;9.07;2.27;;;;;;;-2.21;83.58;96384.84;5112948;28;20247;-67
2021/04/06 02:45:31;;;;;;;6.70;2.40;;;;;;;-2.31;83.79;96384.19;5114121;28;20189;-72
2021/04/06 02:48:06;;;;;;;4.70;2.00;;;;;;;-2.41;84.29;96386.09;5097492;28;20180;-68
2021/04/06 02:50:33;;;;;;;6.37;2.57;;;;;;;-2.32;83.61;96389.47;5114196;28;20662;-68
2021/04/06 02:53:01;;;;;;;2.70;1.70;;;;;;;-2.49;84.18;96392.94;5112915;28;20260;-70
2021/04/06 02:55:26;;;;;;;4.57;2.30;;;;;;;-2.35;83.93;96388.03;5113478;28;20191;-68
2021/04/06 02:57:55;;;;;;;4.43;2.00;;;;;;;-2.37;84.35;96389.16;5113743;28;20180;-71
2021/04/06 03:00:27;;;;;;;2.33;2.13;;;;;;;-2.43;83.53;96380.31;5112985;28;20621;-67
2021/04/06 03:02:58;;;;;;;4.97;2.30;;;;;;;-2.35;83.27;96375.22;5111899;28;20310;-70
2021/04/06 03:05:31;;;;;;;5.53;2.07;;;;;;;-2.32;83.22;96379.22;5113672;28;20203;-66
2021/04/06 03:07:56;;;;;;;3.33;1.97;;;;;;;-2.29;83.05;96381.47;5112972;28;20188;-67
2021/04/06 03:10:22;;;;;;;3.83;1.90;;;;;;;-2.26;83.02;96379.41;5113625;28;20176;-67
2021/04/06 03:12:51;;;;;;;3.30;2.10;;;;;;;-2.19;82.84;96379.56;5113719;28;20196;-66
2021/04/06 03:15:24;;;;;;;5.37;2.77;;;;;;;-2.15;82.50;96376.53;5113338;28;20184;-66
2021/04/06 03:17:52;;;;;;;5.40;2.10;;;;;;;-2.22;82.49;96370.41;5112177;28;20705;-67
2021/04/06 03:20:21;;;;;;;3.43;2.40;;;;;;;-2.16;81.89;96358.72;5112521;28;20184;-67
2021/04/06 03:22:48;;;;;;;3.90;2.17;;;;;;;-2.19;81.25;96362.41;5113094;28;20730;-66
2021/04/06 03:25:14;;;;;;;2.60;2.17;;;;;;;-2.14;81.77;96361.94;5112570;28;20219;-66
2021/04/06 03:27:45;;;;;;;4.70;2.20;;;;;;;-2.12;81.72;96367.72;5113517;28;20178;-65
2021/04/06 03:30:11;;;;;;;6.90;2.10;;;;;;;-2.17;81.43;96359.66;5112088;28;20186;-67
2021/04/06 03:32:38;;;;;;;3.77;2.43;;;;;;;-2.13;80.93;96369.47;5113129;28;20208;-66
2021/04/06 03:35:04;;;;;;;2.43;2.10;;;;;;;-2.14;81.60;96373.00;5112163;28;20885;-65
2021/04/06 03:37:30;;;;;;;3.03;2.20;;;;;;;-2.11;81.55;96357.28;5113489;28;20274;-66
2021/04/06 03:39:55;;;;;;;3.53;2.00;;;;;;;-2.03;80.49;96356.50;5111069;28;20184;-70
2021/04/06 03:42:22;;;;;;;5.60;2.20;;;;;;;-1.98;80.61;96356.00;5112538;28;20192;-65
2021/04/06 03:44:47;;;;;;;3.03;2.20;;;;;;;-2.04;81.15;96361.78;5113319;28;20190;-66
2021/04/06 03:47:13;;;;;;;3.93;2.00;;;;;;;-2.02;80.87;96359.88;5112176;27;20183;-66
2021/04/06 03:49:47;;;;;;;3.57;2.47;;;;;;;-1.95;80.36;96356.47;5112572;28;20651;-66
2021/04/06 03:52:12;;;;;;;5.00;2.30;;;;;;;-1.97;81.28;96353.28;5111982;28;20199;-66
2021/04/06 03:54:43;;;;;;;2.43;2.07;;;;;;;-2.01;81.50;96364.84;5112891;28;20662;-66
2021/04/06 03:59:57;;;;;;;5.00;2.50;;;;;;;-1.96;80.89;96364.38;5111741;28;20202;-67
2021/04/06 04:02:24;;;;;;;4.07;2.40;;;;;;;-1.94;81.25;96368.38;5112186;28;20687;-66
2021/04/06 04:04:53;;;;;;;3.47;2.30;;;;;;;-2.00;82.08;96365.63;5111944;28;20183;-67
2021/04/06 04:07:19;;;;;;;3.93;2.43;;;;;;;-1.98;81.33;96367.09;5111040;28;20198;-66
2021/04/06 04:09:45;;;;;;;3.27;2.60;;;;;;;-2.07;81.70;96365.47;5112197;28;20662;-66
2021/04/06 04:12:10;;;;;;;7.13;2.80;;;;;;;-1.99;82.55;96372.38;5111558;28;20203;-67
2021/04/06 04:14:36;;;;;;;7.70;2.67;;;;;;;-2.01;81.23;96376.88;5111256;28;20216;-67
2021/04/06 04:17:02;;;;;;;5.27;2.57;;;;;;;-2.00;81.60;96374.13;5111687;28;20192;-67
2021/04/06 04:19:28;;;;;;;5.47;2.90;;;;;;;-1.99;82.00;96378.31;5111212;28;20232;-67
2021/04/06 04:21:53;;;;;;;3.83;2.43;;;;;;;-2.06;82.80;96374.75;5111863;28;20187;-71
2021/04/06 04:24:19;;;;;;;4.00;2.67;;;;;;;-2.03;82.59;96376.22;5110935;28;20191;-67
2021/04/06 04:26:44;;;;;;;5.70;3.10;;;;;;;-2.00;82.54;96379.28;5112092;28;20190;-67
2021/04/06 04:29:09;;;;;;;4.63;2.70;;;;;;;-1.91;81.29;96380.91;5111431;28;20636;-66
2021/04/06 04:31:35;;;;;;;6.73;3.13;;;;;;;-1.90;82.13;96377.38;5112276;28;20195;-66
2021/04/06 04:34:00;;;;;;;4.00;2.43;;;;;;;-1.93;81.94;96376.88;5111491;28;20262;-66
2021/04/06 04:36:26;;;;;;;3.33;2.33;;;;;;;-1.80;81.81;96375.47;5111496;28;20187;-66
2021/04/06 04:38:51;;;;;;;3.73;2.93;;;;;;;-1.77;81.38;96375.13;5110960;28;20579;-66
2021/04/06 04:41:17;;;;;;;5.00;2.70;;;;;;;-1.74;82.45;96376.59;5110338;28;20191;-66
2021/04/06 04:43:42;;;;;;;8.10;3.00;;;;;;;-1.72;81.46;96365.16;5111978;28;20183;-67
2021/04/06 04:46:08;;;;;;;3.77;2.47;;;;;;;-1.76;81.16;96373.34;5110845;28;20729;-66
2021/04/06 04:48:33;;;;;;;5.10;2.77;;;;;;;-1.67;81.13;96373.19;5111410;28;20186;-67
2021/04/06 04:50:58;;;;;;;4.10;2.73;;;;;;;-1.69;81.18;96369.19;5110352;28;20179;-68
2021/04/06 04:53:24;;;;;;;7.03;2.97;;;;;;;-1.75;81.26;96372.41;5110735;28;20203;-67
2021/04/06 04:55:49;;;;;;;6.13;2.93;;;;;;;-1.73;81.52;96363.56;5111498;28;20188;-67
2021/04/06 04:58:15;;;;;;;4.47;3.37;;;;;;;-1.69;81.20;96362.28;5110976;28;20212;-67
2021/04/06 05:00:40;;;;;;;3.00;2.53;;;;;;;-1.71;81.03;96360.84;5111811;28;20646;-67
2021/04/06 05:03:06;;;;;;;4.13;2.30;;;;;;;-1.73;81.76;96352.50;5110630;28;20232;-67
2021/04/06 05:05:31;;;;;;;6.10;3.10;;;;;;;-1.70;81.11;96363.25;5111271;28;20263;-67
2021/04/06 05:07:57;;;;;;;8.93;3.13;;;;;;;-1.65;80.81;96352.50;5110445;28;20198;-72
2021/04/06 05:10:22;;;;;;;5.07;2.50;;;;;;;-1.65;81.33;96357.63;5109638;28;20565;-67
2021/04/06 05:12:48;;;;;;;3.83;2.50;;;;;;;-1.74;81.87;96356.84;5111369;28;20200;-67
2021/04/06 05:15:15;;;;;;;3.67;2.57;;;;;;;-1.65;81.86;96351.69;5111405;28;20208;-67
2021/04/06 05:17:41;;;;;;;6.83;2.90;;;;;;;-1.62;81.51;96354.75;5111726;28;20271;-67
2021/04/06 05:20:08;;;;;;;5.03;2.63;;;;;;;-1.57;81.26;96360.19;5110257;28;20219;-66
2021/04/06 05:22:34;;;;;;;8.27;3.10;;;;;;;-1.41;87.39;96361.94;5111483;28;20233;-62
2021/04/06 05:25:00;;;;;;;4.63;2.80;;;;;;;-1.28;82.79;96368.19;5111087;28;20220;-62
2021/04/06 05:27:25;;;;;;;6.17;2.60;;;;;;;-1.24;81.96;96368.69;5110516;28;20204;-62
2021/04/06 05:29:51;;;;;;;3.90;2.30;;;;;;;-1.27;80.53;96367.22;5111358;28;20176;-65
2021/04/06 05:32:17;;;;;;;2.83;2.30;;;;;;;-1.23;80.32;96364.34;5110275;28;20219;-66
2021/04/06 05:34:42;;;;;;;5.03;2.77;;;;;;;-1.38;80.37;96356.47;5113084;28;20183;-65
2021/04/06 05:37:08;;;;;;;4.73;2.40;;;;;;;-1.33;80.51;96365.31;5112525;28;21851;-65
2021/04/06 05:39:33;;;;;;;6.90;2.83;;;;;;;-1.45;80.41;96369.16;5113766;28;20187;-65
2021/04/06 05:41:59;;;;;;;5.70;3.13;;;;;;;-1.45;81.58;96358.09;5114069;28;20187;-69
2021/04/06 05:44:25;;;;;;;3.10;2.43;;;;;;;-1.33;80.61;96367.06;5115087;28;20191;-64
2021/04/06 05:46:53;;;;;;;3.40;2.30;;;;;;;-1.32;81.65;96368.69;5114841;28;20180;-66
2021/04/06 05:49:24;;;;;;;8.43;2.90;;;;;;;-1.25;80.47;96351.63;5114283;28;20726;-64
2021/04/06 05:51:50;;;;;;;5.23;2.63;;;;;;;-1.32;81.29;96358.41;5113131;28;20199;-64
2021/04/06 05:54:17;;;;;;;5.90;3.00;;;;;;;-1.22;81.55;96350.50;5114236;27;20906;-64
2021/04/06 05:56:43;;;;;;;10.10;2.70;;;;;;;-1.15;80.73;96348.88;5115309;28;20543;-66
2021/04/06 05:59:09;;;;;;;7.07;3.00;;;;;;;-1.12;80.38;96353.72;5114629;28;20184;-65
2021/04/06 06:01:38;;;;;;;4.97;2.70;;;;;;;-1.03;80.59;96353.50;5114231;28;20211;-64
2021/04/06 06:04:10;;;;;;;4.13;2.83;;;;;;;-1.11;80.70;96356.09;5113057;28;20228;-64
2021/04/06 06:06:36;;;;;;;4.30;2.50;;;;;;;-1.08;80.66;96357.53;5114482;28;20184;-64
2021/04/06 06:09:04;;;;;;;7.20;2.50;;;;;;;-1.04;80.84;96357.03;5112651;28;20389;-65
2021/04/06 06:11:30;;;;;;;5.03;2.37;;;;;;;-0.94;80.58;96351.72;5114639;28;20203;-64
2021/04/06 06:13:56;;;;;;;5.00;2.30;;;;;;;-0.93;79.38;96359.25;5114668;28;20208;-65
2021/04/06 06:16:24;;;;;;;7.10;2.87;;;;;;;-0.97;79.78;96364.91;5113490;28;20187;-64
2021/04/06 06:18:54;;;;;;;3.50;2.87;;;;;;;-0.82;79.06;96368.41;5113377;28;20176;-64
2021/04/06 06:21:21;;;;;;;5.13;2.70;;;;;;;-0.85;79.76;96366.16;5109803;28;20168;-64
2021/04/06 06:23:46;;;;;;;6.33;2.80;;;;;;;-0.80;79.62;96370.81;5113944;28;20203;-64
2021/04/06 06:26:13;;;;;;;5.60;2.63;;;;;;;-0.82;79.10;96365.81;5113171;28;20255;-64
2021/04/06 06:28:39;;;;;;;8.80;2.63;;;;;;;-0.72;78.59;96368.19;5114250;28;20184;-67
2021/04/06 06:31:05;;;;;;;4.90;2.30;;;;;;;-0.70;78.81;96363.69;5113708;28;20195;-64
2021/04/06 06:33:33;;;;;;;5.03;2.57;;;;;;;-0.63;78.74;96367.22;5114124;28;20671;-64
2021/04/06 06:36:01;;;;;;;6.20;2.50;;;;;;;-0.53;78.55;96366.03;5113737;28;20184;-68
2021/04/06 06:38:32;;;;;;;6.27;2.60;;;;;;;-0.52;78.12;96359.13;5114411;28;20187;-64
2021/04/06 06:41:14;;;;;;;3.83;2.67;;;;;;;-0.52;78.52;96375.38;5112476;28;20661;-69
2021/04/06 06:43:54;;;;;;;6.80;3.00;;;;;;;-0.38;79.29;96362.72;5103853;28;20765;-64
2021/04/06 06:46:22;;;;;;;3.80;2.73;;;;;;;-0.50;78.68;96375.19;5102578;28;20176;-64
2021/04/06 06:48:56;;;;;;;4.40;3.03;;;;;;;-0.41;78.39;96376.75;5113798;27;20278;-65
2021/04/06 06:51:41;;;;;;;4.97;3.00;;;;;;;-0.52;78.91;96372.78;5110010;28;20183;-65
2021/04/06 06:54:06;;;;;;;3.93;2.57;;;;;;;-0.37;78.30;96372.88;5112900;28;20176;-65
2021/04/06 06:56:37;;;;;;;4.30;2.77;;;;;;;-0.26;78.69;96375.06;5112992;28;20639;-64
2021/04/06 06:59:04;;;;;;;5.10;2.50;;;;;;;-0.19;77.86;96375.19;5112403;28;20176;-66
2021/04/06 07:01:31;;;;;;;4.23;2.80;;;;;;;-0.17;78.11;96362.97;5113435;28;20226;-64
2021/04/06 07:04:02;;;;;;;7.27;2.70;;;;;;;-0.08;77.94;96361.94;5113480;28;20206;-65
2021/04/06 07:06:27;;;;;;;3.17;2.30;;;;;;;-0.04;77.05;96366.56;5113015;28;20180;-65
2021/04/06 07:08:53;;;;;;;3.73;2.13;;;;;;;0.02;77.30;96359.94;5113679;28;20271;-64
2021/04/06 07:11:20;;;;;;;3.73;2.20;;;;;;;-0.09;76.71;96370.63;5112078;27;20188;-64
2021/04/06 07:13:49;;;;;;;7.20;2.40;;;;;;;0.12;76.50;96363.06;5112676;28;20652;-64
2021/04/06 07:16:17;;;;;;;3.60;2.23;;;;;;;0.08;76.62;96363.59;5112399;28;20188;-64
2021/04/06 07:18:43;;;;;;;6.77;2.27;;;;;;;0.01;76.73;96366.03;5113479;28;20287;-64
2021/04/06 07:21:11;;;;;;;5.83;2.60;;;;;;;0.14;77.17;96370.63;5110861;28;20652;-64
2021/04/06 07:23:38;;;;;;;6.10;2.60;;;;;;;0.21;76.05;96367.22;5112618;28;20327;-64
2021/04/06 07:26:10;;;;;;;6.83;2.27;;;;;;;0.22;75.79;96379.13;5112193;28;20534;-65
2021/04/06 07:28:36;;;;;;;4.57;2.30;;;;;;;0.39;75.03;96377.22;5113169;28;20594;-64
2021/04/06 07:31:03;;;;;;;5.80;2.40;;;;;;;0.36;75.74;96364.69;5111809;28;20184;-67
2021/04/06 07:33:31;;;;;;;2.80;2.23;;;;;;;0.39;76.54;96377.22;5112384;28;20675;-65
2021/04/06 07:36:02;;;;;;;3.90;2.63;;;;;;;0.46;75.83;96372.16;5112081;28;20188;-64
2021/04/06 07:38:27;;;;;;;7.00;2.47;;;;;;;0.61;75.70;96376.41;5112326;28;20689;-64
2021/04/06 07:40:54;;;;;;;4.73;2.40;;;;;;;0.57;74.69;96377.72;5111769;28;20180;-65
2021/04/06 07:43:21;;;;;;;6.10;2.27;;;;;;;0.72;74.46;96377.75;5112199;28;20212;-64
2021/04/06 07:45:46;;;;;;;9.73;2.80;;;;;;;0.88;74.73;96382.75;5112475;28;20192;-64
2021/04/06 07:48:33;;;;;;;5.40;2.30;;;;;;;0.89;74.03;96376.63;5111730;28;20546;-64
2021/04/06 07:51:13;;;;;;;6.03;2.20;;;;;;;1.09;73.60;96379.47;5112007;28;20266;-64
2021/04/06 07:53:56;;;;;;;11.77;3.10;;;;;;;1.03;73.27;96377.59;5109064;28;20612;-64
2021/04/06 07:56:50;;;;;;;5.57;2.20;;;;;;;1.15;73.05;96378.78;5106358;28;20605;-64
2021/04/06 07:59:19;;;;;;;7.37;2.53;;;;;;;1.33;73.68;96371.47;5087954;28;20192;-66
2021/04/06 08:01:50;;;;;;;6.07;2.60;;;;;;;1.17;74.32;96372.44;5112341;28;20212;-64
2021/04/06 08:04:19;;;;;;;8.40;2.40;;;;;;;1.18;74.43;96373.25;5109491;28;20203;-64
2021/04/06 08:06:47;;;;;;;4.63;2.27;;;;;;;1.19;74.20;96370.50;5112535;27;20191;-64
2021/04/06 08:09:43;;;;;;;6.27;2.27;;;;;;;1.11;73.91;96377.53;5110918;28;20183;-64
2021/04/06 08:12:15;;;;;;;4.40;2.33;;;;;;;1.22;74.00;96380.47;5111510;28;20224;-64
2021/04/06 08:14:44;;;;;;;5.70;2.80;;;;;;;1.22;73.56;96372.72;5112222;28;20192;-64
2021/04/06 08:17:27;;;;;;;9.07;2.63;;;;;;;1.34;74.32;96382.59;5110937;28;20187;-64
2021/04/06 08:20:10;;;;;;;5.70;2.47;;;;;;;1.46;76.27;96383.72;5112005;28;20177;-63
2021/04/06 08:22:51;;;;;;;8.23;2.40;;;;;;;1.56;76.11;96379.13;5100027;28;20228;-64
2021/04/06 08:25:20;;;;;;;6.33;2.13;;;;;;;1.51;75.21;96381.41;5110719;28;20176;-64
2021/04/06 08:27:48;;;;;;;7.03;2.53;;;;;;;1.50;74.90;96379.84;5111983;28;20191;-64
2021/04/06 08:30:19;;;;;;;5.17;2.30;;;;;;;1.37;74.59;96377.06;5110899;28;20179;-64
2021/04/06 08:32:57;;;;;;;7.73;2.60;;;;;;;1.42;75.42;96380.72;5111587;28;20199;-64
2021/04/06 08:35:52;;;;;;;5.00;2.43;;;;;;;1.43;74.77;96382.34;5109902;28;20179;-64
2021/04/06 08:38:29;;;;;;;4.53;2.40;;;;;;;1.44;74.20;96390.88;5111065;28;20172;-64
2021/04/06 08:41:18;;;;;;;4.73;2.20;;;;;;;1.45;73.54;96388.09;5110882;28;20658;-64
2021/04/06 08:43:48;;;;;;;4.60;2.27;;;;;;;1.35;73.18;96386.78;5111456;28;20229;-64
2021/04/06 08:46:49;;;;;;;9.73;2.53;;;;;;;1.30;72.89;96384.72;5111037;28;20186;-64
2021/04/06 08:49:24;;;;;;;10.60;2.50;;;;;;;1.33;73.48;96383.59;5109248;28;20191;-64
2021/04/06 08:51:56;;;;;;;5.13;2.40;;;;;;;1.41;72.98;96386.84;5110191;28;20278;-65
2021/04/06 08:54:31;;;;;;;5.53;2.20;;;;;;;1.40;73.96;96389.63;5110848;28;20275;-65
2021/04/06 08:57:05;;;;;;;4.20;2.33;;;;;;;1.47;74.48;96387.94;5111048;28;20659;-65
2021/04/06 08:59:42;;;;;;;4.97;2.63;;;;;;;1.44;75.84;96394.25;5111127;28;20175;-65
2021/04/06 09:02:09;;;;;;;5.23;1.90;;;;;;;1.23;76.41;96399.31;5110611;28;20231;-66
2021/04/06 09:04:42;;;;;;;3.93;2.03;;;;;;;1.08;78.14;96408.84;5111686;28;20191;-66
2021/04/06 09:07:23;;;;;;;4.87;2.77;;;;;;;0.96;79.56;96400.72;5110511;28;20179;-67
2021/04/06 09:09:52;;;;;;;4.87;2.50;;;;;;;1.03;80.52;96393.09;5109882;28;20502;-66
2021/04/06 09:12:19;;;;;;;6.50;2.67;;;;;;;1.20;80.65;96394.53;5110336;28;20191;-66
2021/04/06 09:14:45;;;;;;;6.77;2.40;;;;;;;1.31;81.19;96394.06;5109652;28;20180;-66
2021/04/06 09:17:11;;;;;;;6.17;2.30;;;;;;;1.35;80.73;96402.25;5110233;28;20198;-66
2021/04/06 09:19:38;;;;;;;6.97;2.27;;;;;;;1.37;78.76;96395.16;5110864;28;20188;-66
2021/04/06 09:22:11;;;;;;;3.80;2.30;;;;;;;1.41;77.83;96397.19;5110433;28;20544;-72
2021/04/06 09:24:37;;;;;;;8.53;2.93;;;;;;;1.65;77.84;96402.06;5095460;28;20170;-66
2021/04/06 09:27:03;;;;;;;3.93;2.40;;;;;;;2.07;75.90;96388.44;5109977;28;20257;-72
2021/04/06 09:29:36;;;;;;;6.30;2.57;;;;;;;2.21;76.24;96388.56;5110348;28;20184;-65
2021/04/06 09:32:06;;;;;;;3.57;2.20;;;;;;;2.56;74.07;96389.50;5097975;28;20253;-72
2021/04/06 09:34:40;;;;;;;4.27;1.80;;;;;;;2.62;73.23;96397.28;5110956;28;20237;-65
2021/04/06 09:37:05;;;;;;;6.03;2.20;;;;;;;2.48;71.85;96391.22;5109366;28;20699;-72
2021/04/06 09:39:32;;;;;;;5.37;2.00;;;;;;;2.33;71.24;96389.69;5111476;28;20267;-65
2021/04/06 09:41:59;;;;;;;3.40;1.83;;;;;;;2.24;71.18;96381.22;5110540;28;20210;-65
2021/04/06 09:44:28;;;;;;;7.33;1.73;;;;;;;2.41;71.73;96386.97;5110320;28;20679;-65
2021/04/06 09:47:02;;;;;;;3.57;1.70;;;;;;;2.54;71.15;96389.69;5111109;28;20183;-66
2021/04/06 09:49:40;;;;;;;7.00;2.37;;;;;;;2.61;71.71;96382.78;5110321;28;20225;-66
2021/04/06 09:52:26;;;;;;;4.30;1.60;;;;;;;2.25;72.91;96389.78;5109720;28;20191;-70
2021/04/06 09:54:52;;;;;;;4.80;2.00;;;;;;;2.02;73.76;96389.97;5110225;28;20176;-65
2021/04/06 09:57:19;;;;;;;3.60;1.80;;;;;;;1.97;73.55;96381.97;5110510;28;20172;-66
2021/04/06 09:59:51;;;;;;;4.83;2.00;;;;;;;2.15;73.23;96387.53;5109734;28;20192;-65
2021/04/06 10:02:18;;;;;;;4.93;1.97;;;;;;;2.40;72.87;96380.19;5108062;28;20238;-66
2021/04/06 10:04:47;;;;;;;3.93;2.10;;;;;;;2.73;72.13;96383.06;5110741;28;20240;-66
2021/04/06 10:07:18;;;;;;;4.20;2.00;;;;;;;2.66;70.32;96380.44;5109991;28;20186;-65
2021/04/06 10:09:46;;;;;;;5.67;2.30;;;;;;;2.61;70.69;96385.38;5110972;28;20577;-64
2021/04/06 10:12:13;;;;;;;6.87;2.37;;;;;;;2.73;70.81;96375.31;5108431;28;20206;-65
2021/04/06 10:14:39;;;;;;;4.90;2.40;;;;;;;2.95;71.60;96373.47;5110228;28;20184;-65
2021/04/06 10:17:07;;;;;;;5.67;2.10;;;;;;;3.13;69.67;96371.97;5109975;28;20188;-70
2021/04/06 10:19:35;;;;;;;5.03;1.90;;;;;;;2.91;68.06;96371.25;5110695;28;20187;-66
2021/04/06 10:22:13;;;;;;;4.37;2.13;;;;;;;2.57;67.01;96373.78;5112298;28;20194;-65
2021/04/06 10:24:42;;;;;;;6.40;1.73;;;;;;;2.85;69.45;96368.59;5114668;28;20233;-65
2021/04/06 10:27:29;;;;;;;3.33;1.80;;;;;;;2.65;69.01;96367.69;5113266;28;20172;-66
2021/04/06 10:30:04;;;;;;;6.00;1.70;;;;;;;2.81;65.56;96365.59;5114775;28;20180;-65
2021/04/06 10:32:33;;;;;;;3.27;2.00;;;;;;;2.58;66.94;96362.44;5113945;28;20303;-66
2021/04/06 10:35:07;;;;;;;5.20;2.13;;;;;;;2.37;66.67;96358.09;5113313;28;20191;-65
2021/04/06 10:37:51;;;;;;;5.33;1.93;;;;;;;2.28;64.31;96356.63;5113370;28;20182;-66
2021/04/06 10:40:39;;;;;;;5.93;1.80;;;;;;;2.27;65.54;96349.84;5112666;28;20193;-66
2021/04/06 10:43:18;;;;;;;5.33;2.20;;;;;;;2.40;66.18;96338.81;5080861;28;20187;-71
2021/04/06 10:45:47;;;;;;;4.50;1.90;;;;;;;2.45;64.67;96337.25;5113651;28;20169;-65
2021/04/06 10:48:19;;;;;;;4.67;1.70;;;;;;;2.36;64.58;96338.41;5112956;28;20183;-66
2021/04/06 10:50:46;;;;;;;4.20;1.60;;;;;;;2.61;64.77;96331.03;5112533;28;20561;-67
2021/04/06 10:53:22;;;;;;;3.97;1.97;;;;;;;3.07;65.83;96331.31;5112643;28;20196;-66
2021/04/06 10:55:55;;;;;;;3.60;1.97;;;;;;;3.80;64.17;96342.00;5114171;28;20168;-64
2021/04/06 10:58:51;;;;;;;4.30;1.60;;;;;;;3.55;61.68;96329.56;5112107;28;20203;-64
2021/04/06 11:01:23;;;;;;;4.77;1.70;;;;;;;3.41;63.93;96325.31;5098898;28;20258;-65
2021/04/06 11:03:54;;;;;;;4.07;1.80;;;;;;;3.15;63.54;96325.19;5113617;28;20215;-64
2021/04/06 11:06:27;;;;;;;5.43;1.80;;;;;;;3.44;63.20;96324.16;5113106;28;20211;-64
2021/04/06 11:08:54;;;;;;;4.80;1.60;;;;;;;3.66;62.18;96323.03;5113506;28;20168;-64
2021/04/06 11:11:33;;;;;;;3.87;1.93;;;;;;;3.66;63.59;96323.03;5112672;28;20188;-64
2021/04/06 11:14:02;;;;;;;6.00;1.90;;;;;;;3.63;61.03;96320.81;5113210;28;20205;-66
2021/04/06 11:16:28;;;;;;;2.43;1.57;;;;;;;3.72;60.89;96323.06;5112666;28;20184;-64
2021/04/06 11:19:13;;;;;;;2.33;1.57;;;;;;;3.27;60.88;96308.13;5113088;28;20255;-68
2021/04/06 11:21:46;;;;;;;3.77;1.60;;;;;;;3.47;61.41;96308.19;5112774;28;20188;-66
2021/04/06 11:24:13;;;;;;;4.37;1.80;;;;;;;3.48;58.42;96308.03;5112420;28;20225;-66
2021/04/06 11:26:39;;;;;;;3.83;1.63;;;;;;;3.52;61.06;96304.03;5112906;28;20180;-66
2021/04/06 11:29:09;;;;;;;3.23;1.80;;;;;;;3.62;59.70;96301.88;5112378;28;20229;-71
2021/04/06 11:31:36;;;;;;;3.70;1.93;;;;;;;3.70;59.97;96301.72;5111981;28;20552;-66
2021/04/06 11:34:06;;;;;;;4.67;1.90;;;;;;;3.78;60.53;96305.13;5113129;28;20240;-66
2021/04/06 11:36:32;;;;;;;3.30;1.83;;;;;;;3.59;59.99;96304.06;5113123;28;20192;-67
2021/04/06 11:38:57;;;;;;;2.37;1.70;;;;;;;3.37;60.98;96300.00;5113067;28;20214;-65
2021/04/06 11:41:23;;;;;;;2.70;1.80;;;;;;;3.46;59.02;96298.84;5111519;28;20188;-65
2021/04/06 11:43:49;;;;;;;2.53;1.63;;;;;;;3.35;58.74;96292.41;5112466;28;20184;-66
2021/04/06 11:46:15;;;;;;;5.00;2.00;;;;;;;3.34;58.11;96290.84;5111863;28;20187;-66
2021/04/06 11:48:44;;;;;;;1.97;1.57;;;;;;;3.66;58.25;96290.16;5112508;28;20635;-66
2021/04/06 11:51:11;;;;;;;4.73;1.83;;;;;;;3.81;58.17;96295.16;5110409;28;20271;-67
2021/04/06 11:53:37;;;;;;;2.93;1.60;;;;;;;3.84;56.87;96273.25;5112519;28;20212;-68